Time;durP1;ratioP1;P1;durP2;ratioP2;P2;SDS_P1;SDS_P2;PMS_P1;PMS_P2;Temp;Humidity;BMP_temperature;BMP_pressure;BME280_temperature;BME280_humidity;BME280_pressure;Samples;Min_cycle;Max_cycle;Signal;HPM_P1;HPM_P2
2023/10/18 00:01:16;;;;;;;9.80;5.57;;;6.90;99.90;;;;;;5064470;28;20052;-62
2023/10/18 00:03:41;;;;;;;12.70;5.45;;;6.80;99.90;;;;;;5068121;28;20429;-60
2023/10/18 00:06:21;;;;;;;14.43;6.50;;;6.80;99.90;;;;;;5065911;28;20435;-62
2023/10/18 00:08:46;;;;;;;15.68;6.07;;;6.80;99.90;;;;;;5062962;28;20517;-61
2023/10/18 00:11:13;;;;;;;10.60;5.55;;;6.80;99.90;;;;;;5064533;28;20052;-60
2023/10/18 00:13:38;;;;;;;10.60;4.85;;;6.80;99.90;;;;;;5060442;28;20037;-62
2023/10/18 00:16:06;;;;;;;10.30;5.43;;;6.80;99.90;;;;;;5058133;28;20474;-58
2023/10/18 00:18:32;;;;;;;13.77;5.88;;;6.80;99.90;;;;;;5059775;28;20070;-61
2023/10/18 00:21:05;;;;;;;12.10;6.10;;;6.80;99.90;;;;;;5063515;28;20028;-56
2023/10/18 00:23:32;;;;;;;9.60;5.13;;;6.80;99.90;;;;;;5059306;28;20025;-63
2023/10/18 00:26:08;;;;;;;8.05;5.10;;;6.80;99.90;;;;;;5060996;28;20283;-58
2023/10/18 00:28:37;;;;;;;9.00;5.20;;;6.80;99.90;;;;;;5054975;28;20030;-62
2023/10/18 00:31:20;;;;;;;11.68;5.50;;;6.80;99.90;;;;;;5060325;28;20112;-60
2023/10/18 00:33:46;;;;;;;13.48;5.00;;;6.80;99.90;;;;;;5061189;28;20044;-62
2023/10/18 00:36:16;;;;;;;11.23;5.45;;;6.80;99.90;;;;;;5061583;28;20120;-62
2023/10/18 00:38:42;;;;;;;8.05;5.13;;;6.80;99.90;;;;;;5057920;28;20032;-59
2023/10/18 00:41:22;;;;;;;8.57;5.35;;;6.80;99.90;;;;;;5062345;28;20491;-59
2023/10/18 00:43:50;;;;;;;6.53;5.00;;;6.80;99.90;;;;;;5059956;28;20039;-61
2023/10/18 00:46:16;;;;;;;9.20;5.60;;;6.80;99.90;;;;;;5062445;28;20017;-58
2023/10/18 00:48:44;;;;;;;9.93;5.15;;;6.80;99.90;;;;;;5066190;28;20025;-58
2023/10/18 00:51:13;;;;;;;7.38;4.85;;;6.80;99.90;;;;;;5057267;28;20016;-58
2023/10/18 00:53:42;;;;;;;13.20;5.53;;;6.80;99.90;;;;;;5056995;28;20039;-61
2023/10/18 00:56:11;;;;;;;14.95;5.45;;;6.80;99.90;;;;;;5057480;28;20048;-61
2023/10/18 00:58:40;;;;;;;11.10;4.85;;;6.80;99.90;;;;;;5066237;28;20024;-58
2023/10/18 01:01:09;;;;;;;11.02;5.00;;;6.80;99.90;;;;;;5071729;28;20129;-60
2023/10/18 01:03:36;;;;;;;7.63;4.90;;;6.80;99.90;;;;;;5057195;28;20044;-61
2023/10/18 01:06:16;;;;;;;10.90;4.93;;;6.70;99.90;;;;;;5057454;28;20036;-57
2023/10/18 01:08:44;;;;;;;9.13;5.00;;;6.70;99.90;;;;;;5060603;28;20118;-61
2023/10/18 01:11:10;;;;;;;9.25;4.97;;;6.70;99.90;;;;;;5056870;28;20044;-62
2023/10/18 01:13:40;;;;;;;7.60;4.22;;;6.70;99.90;;;;;;5064088;28;20036;-61
2023/10/18 01:16:13;;;;;;;8.30;4.40;;;6.50;99.90;;;;;;5057489;28;20410;-61
2023/10/18 01:18:42;;;;;;;10.32;4.50;;;6.40;99.90;;;;;;5065341;28;20384;-62
2023/10/18 01:21:16;;;;;;;9.57;4.55;;;6.40;99.90;;;;;;5061720;28;20049;-60
2023/10/18 01:23:46;;;;;;;12.00;5.28;;;6.30;99.90;;;;;;5062345;28;20051;-58
2023/10/18 01:26:13;;;;;;;8.38;4.68;;;6.30;99.90;;;;;;5053160;28;20017;-62
2023/10/18 01:28:40;;;;;;;8.13;4.93;;;6.30;99.90;;;;;;5066770;28;20028;-62
2023/10/18 01:31:06;;;;;;;9.05;4.93;;;6.30;99.90;;;;;;5059912;28;20056;-60
2023/10/18 01:33:32;;;;;;;13.50;5.05;;;6.20;99.90;;;;;;5055046;28;20039;-58
2023/10/18 01:35:58;;;;;;;8.93;4.75;;;6.20;99.90;;;;;;5064039;28;20025;-62
2023/10/18 01:38:30;;;;;;;8.30;4.80;;;6.20;99.90;;;;;;5064060;28;20017;-61
2023/10/18 01:40:57;;;;;;;7.68;4.88;;;6.20;99.90;;;;;;5059902;28;20064;-61
2023/10/18 01:43:28;;;;;;;6.15;4.05;;;6.20;99.90;;;;;;5055161;28;20190;-61
2023/10/18 01:45:54;;;;;;;6.05;4.25;;;6.20;99.90;;;;;;5061656;28;20387;-60
2023/10/18 01:48:20;;;;;;;11.57;4.63;;;6.20;99.90;;;;;;5055432;28;20025;-59
2023/10/18 01:50:47;;;;;;;8.55;4.80;;;6.20;99.90;;;;;;5057888;28;20028;-60
2023/10/18 01:53:16;;;;;;;8.90;4.28;;;6.20;99.90;;;;;;5063453;28;20028;-59
2023/10/18 01:55:52;;;;;;;8.52;4.55;;;6.20;99.90;;;;;;5059507;28;20055;-62
2023/10/18 01:58:23;;;;;;;8.50;4.40;;;6.20;99.90;;;;;;5065619;28;20061;-57
2023/10/18 02:00:49;;;;;;;7.90;4.32;;;6.20;99.90;;;;;;5064248;28;20033;-61
2023/10/18 02:03:15;;;;;;;7.00;4.18;;;6.20;99.90;;;;;;5057433;28;20087;-60
2023/10/18 02:05:43;;;;;;;11.73;4.88;;;6.20;99.90;;;;;;5066246;28;20463;-59
2023/10/18 02:08:11;;;;;;;7.00;4.10;;;6.20;99.90;;;;;;5059423;28;20020;-62
2023/10/18 02:10:40;;;;;;;8.13;4.53;;;6.20;99.90;;;;;;5069525;28;20158;-59
2023/10/18 02:13:08;;;;;;;10.32;4.38;;;6.30;99.90;;;;;;5074640;28;20402;-60
2023/10/18 02:15:35;;;;;;;7.38;4.38;;;6.20;99.90;;;;;;5067453;28;20028;-59
2023/10/18 02:18:00;;;;;;;9.65;4.10;;;6.30;99.90;;;;;;5059576;28;20036;-60
2023/10/18 02:20:26;;;;;;;6.72;4.07;;;6.30;99.90;;;;;;5064589;28;20043;-59
2023/10/18 02:22:59;;;;;;;12.23;4.43;;;6.30;99.90;;;;;;5065192;28;20035;-62
2023/10/18 02:25:43;;;;;;;10.55;4.85;;;6.40;99.90;;;;;;5067823;28;20032;-61
2023/10/18 02:28:23;;;;;;;7.10;4.20;;;6.40;99.90;;;;;;5064336;28;20021;-60
2023/10/18 02:33:39;;;;;;;8.30;4.07;;;6.40;99.90;;;;;;5060007;28;20394;-61
2023/10/18 02:36:10;;;;;;;8.18;4.15;;;6.40;99.90;;;;;;5059999;28;20474;-60
2023/10/18 02:38:37;;;;;;;7.88;3.83;;;6.40;99.90;;;;;;5061436;28;20063;-60
2023/10/18 02:41:14;;;;;;;10.45;4.30;;;6.40;99.90;;;;;;5068496;28;20430;-61
2023/10/18 02:43:45;;;;;;;14.52;4.50;;;6.40;99.90;;;;;;5064368;28;20021;-60
2023/10/18 02:46:12;;;;;;;7.60;4.05;;;6.40;99.90;;;;;;5062534;28;20028;-62
2023/10/18 02:48:40;;;;;;;6.78;4.00;;;6.40;99.90;;;;;;5063378;28;20036;-62
2023/10/18 02:51:06;;;;;;;12.95;4.25;;;6.40;99.90;;;;;;5064241;28;20032;-62
2023/10/18 02:53:34;;;;;;;6.20;4.57;;;6.40;99.90;;;;;;5063502;28;20099;-61
2023/10/18 02:56:00;;;;;;;6.28;4.10;;;6.50;99.90;;;;;;5061202;28;20025;-62
2023/10/18 02:58:28;;;;;;;9.27;4.45;;;6.50;99.90;;;;;;5062727;28;20104;-59
2023/10/18 03:00:54;;;;;;;10.15;4.60;;;6.50;99.90;;;;;;5060817;28;20035;-60
2023/10/18 03:03:22;;;;;;;9.98;4.15;;;6.50;99.90;;;;;;5062451;28;20031;-60
2023/10/18 03:05:48;;;;;;;9.30;4.30;;;6.50;99.90;;;;;;5059964;28;20021;-60
2023/10/18 03:08:13;;;;;;;12.80;4.85;;;6.50;99.90;;;;;;5067825;28;20357;-62
2023/10/18 03:10:44;;;;;;;5.75;4.05;;;6.50;99.90;;;;;;5061266;28;20047;-62
2023/10/18 03:13:13;;;;;;;10.05;4.43;;;6.50;99.90;;;;;;5065822;28;20062;-59
2023/10/18 03:15:52;;;;;;;7.60;4.05;;;6.50;99.90;;;;;;5058817;28;20112;-62
2023/10/18 03:18:24;;;;;;;11.60;4.38;;;6.60;99.90;;;;;;5062393;28;20029;-60
2023/10/18 03:20:53;;;;;;;11.85;4.25;;;6.50;99.90;;;;;;5061368;28;20039;-59
2023/10/18 03:23:19;;;;;;;7.53;3.90;;;6.50;99.90;;;;;;5058427;28;20028;-59
2023/10/18 03:25:44;;;;;;;8.00;3.83;;;6.50;99.90;;;;;;5062793;28;20448;-61
2023/10/18 03:28:13;;;;;;;9.40;4.13;;;6.50;99.90;;;;;;5058221;28;20100;-62
2023/10/18 03:30:44;;;;;;;4.90;3.63;;;6.50;99.90;;;;;;5063121;28;20051;-62
2023/10/18 03:33:12;;;;;;;9.48;4.72;;;6.50;99.90;;;;;;5061317;28;20087;-60
2023/10/18 03:35:40;;;;;;;8.75;4.47;;;6.50;99.90;;;;;;5060251;28;20036;-60
2023/10/18 03:38:29;;;;;;;5.68;4.38;;;6.50;99.90;;;;;;5063712;28;20116;-61
2023/10/18 03:40:57;;;;;;;7.28;3.60;;;6.60;99.90;;;;;;5062551;28;20055;-59
2023/10/18 03:43:26;;;;;;;9.77;4.28;;;6.60;99.90;;;;;;5057590;28;20024;-62
2023/10/18 03:46:09;;;;;;;7.53;3.75;;;6.60;99.90;;;;;;5061923;28;20071;-60
2023/10/18 03:48:44;;;;;;;10.30;4.10;;;6.50;99.90;;;;;;5055820;28;20032;-59
2023/10/18 03:51:23;;;;;;;5.90;4.07;;;6.60;99.90;;;;;;5057583;28;20036;-59
2023/10/18 03:53:53;;;;;;;8.77;4.68;;;6.60;99.90;;;;;;5057870;28;20096;-61
2023/10/18 03:56:22;;;;;;;5.05;3.90;;;6.70;99.90;;;;;;5070075;28;20032;-59
2023/10/18 03:59:01;;;;;;;6.82;3.78;;;6.70;99.90;;;;;;5062456;28;20058;-61
2023/10/18 04:01:41;;;;;;;6.25;3.83;;;6.70;99.90;;;;;;5069382;28;20082;-59
2023/10/18 04:04:07;;;;;;;7.00;3.92;;;6.80;99.90;;;;;;5069518;28;20025;-62
2023/10/18 04:06:35;;;;;;;7.88;3.85;;;6.80;99.90;;;;;;5057020;28;20036;-59
2023/10/18 04:09:13;;;;;;;5.20;3.63;;;6.80;99.90;;;;;;5058780;28;20020;-61
2023/10/18 04:11:39;;;;;;;9.43;4.43;;;6.80;99.90;;;;;;5060330;28;20035;-59
2023/10/18 04:14:04;;;;;;;8.98;4.22;;;6.90;99.90;;;;;;5068623;28;20032;-59
2023/10/18 04:16:30;;;;;;;9.07;4.72;;;6.90;99.90;;;;;;5068754;28;20029;-58
2023/10/18 04:18:57;;;;;;;9.23;3.92;;;6.90;99.90;;;;;;5063779;28;20130;-62
2023/10/18 04:21:26;;;;;;;9.15;4.22;;;6.90;99.90;;;;;;5065958;28;20020;-62
2023/10/18 04:23:54;;;;;;;8.85;3.95;;;6.90;99.90;;;;;;5058796;28;20025;-59
2023/10/18 04:26:21;;;;;;;9.02;4.30;;;7.00;99.90;;;;;;5062860;28;20044;-61
2023/10/18 04:28:48;;;;;;;7.55;3.15;;;7.00;99.90;;;;;;5059972;28;20025;-60
2023/10/18 04:31:14;;;;;;;6.65;3.53;;;7.00;99.90;;;;;;5055578;28;20479;-59
2023/10/18 04:33:41;;;;;;;10.30;3.97;;;7.00;99.90;;;;;;5059927;28;20466;-61
2023/10/18 04:36:12;;;;;;;13.48;3.70;;;6.90;99.90;;;;;;5060202;28;20037;-60
2023/10/18 04:38:51;;;;;;;7.22;3.70;;;7.00;99.90;;;;;;5056759;28;20025;-62
2023/10/18 04:41:23;;;;;;;7.53;4.28;;;7.00;99.90;;;;;;5054162;28;20052;-60
2023/10/18 04:44:05;;;;;;;7.88;4.35;;;7.00;99.90;;;;;;5062483;28;20028;-57
2023/10/18 04:46:37;;;;;;;6.53;3.80;;;7.00;99.90;;;;;;5061400;28;20103;-60
2023/10/18 04:54:15;;;;;;;7.70;3.80;;;6.90;99.90;;;;;;5061547;28;20131;-58
2023/10/18 04:56:48;;;;;;;12.43;4.38;;;6.90;99.90;;;;;;5060207;28;20021;-60
2023/10/18 05:04:29;;;;;;;5.95;3.92;;;6.80;99.90;;;;;;5063516;28;20380;-60
2023/10/18 05:06:56;;;;;;;6.05;4.05;;;6.80;99.90;;;;;;5061603;28;20017;-60
2023/10/18 05:09:32;;;;;;;8.35;4.35;;;6.90;99.90;;;;;;5059821;28;20060;-58
2023/10/18 05:12:04;;;;;;;6.10;4.30;;;6.90;99.90;;;;;;5062565;28;20467;-59
2023/10/18 05:14:35;;;;;;;7.50;4.78;;;6.90;99.90;;;;;;5058951;28;20025;-61
2023/10/18 05:17:10;;;;;;;6.72;4.32;;;6.90;99.90;;;;;;5062748;28;20069;-61
2023/10/18 05:19:37;;;;;;;8.82;4.30;;;7.00;99.90;;;;;;5057406;28;20402;-60
2023/10/18 05:22:04;;;;;;;10.02;4.57;;;6.90;99.90;;;;;;5065140;28;20027;-60
2023/10/18 05:24:36;;;;;;;8.93;4.38;;;7.00;99.90;;;;;;5060136;28;21171;-61
2023/10/18 05:27:05;;;;;;;5.90;4.00;;;7.00;99.90;;;;;;5062386;28;20038;-58
2023/10/18 05:29:43;;;;;;;6.40;4.30;;;6.90;99.90;;;;;;5058334;28;20143;-60
2023/10/18 05:32:38;;;;;;;9.50;4.72;;;7.00;99.90;;;;;;5056902;28;20486;-58
2023/10/18 05:35:19;;;;;;;9.70;4.75;;;7.00;99.90;;;;;;5061819;28;20098;-59
2023/10/18 05:37:59;;;;;;;5.78;3.42;;;7.00;99.90;;;;;;5057790;28;20549;-58
2023/10/18 05:43:04;;;;;;;10.88;4.80;;;7.10;99.90;;;;;;5062774;28;20032;-59
2023/10/18 05:45:31;;;;;;;9.63;4.47;;;7.00;99.90;;;;;;5058294;28;20025;-62
2023/10/18 05:48:02;;;;;;;7.63;4.35;;;7.00;99.90;;;;;;5066944;28;20021;-60
2023/10/18 05:50:34;;;;;;;8.90;4.25;;;7.00;99.90;;;;;;5063114;28;20029;-60
2023/10/18 05:53:11;;;;;;;12.35;5.35;;;7.00;99.90;;;;;;5069057;28;20020;-59
2023/10/18 05:55:38;;;;;;;12.18;5.68;;;7.00;99.90;;;;;;5057688;28;20047;-58
2023/10/18 05:58:07;;;;;;;7.57;4.20;;;7.00;99.90;;;;;;5066435;28;20016;-58
2023/10/18 06:00:34;;;;;;;9.63;5.45;;;7.00;99.90;;;;;;5065611;28;20453;-56
2023/10/18 06:03:00;;;;;;;9.13;5.13;;;7.00;99.90;;;;;;5065155;28;20153;-62
2023/10/18 06:05:33;;;;;;;10.73;4.75;;;7.00;99.90;;;;;;5060092;28;20055;-59
2023/10/18 06:07:59;;;;;;;12.27;5.05;;;7.00;99.90;;;;;;5072177;28;20034;-61
2023/10/18 06:10:26;;;;;;;9.77;4.80;;;7.00;99.90;;;;;;5069644;28;20554;-62
2023/10/18 06:13:10;;;;;;;8.85;5.20;;;7.00;99.90;;;;;;5066586;28;20426;-61
2023/10/18 06:15:38;;;;;;;11.25;4.50;;;7.00;99.90;;;;;;5062008;28;20033;-60
2023/10/18 06:18:06;;;;;;;11.73;5.55;;;6.90;99.90;;;;;;5064914;28;20059;-61
2023/10/18 06:20:36;;;;;;;10.15;4.57;;;6.90;99.90;;;;;;5064567;28;20036;-62
2023/10/18 06:25:38;;;;;;;9.88;5.28;;;7.00;99.90;;;;;;5064761;28;20028;-57
2023/10/18 06:28:07;;;;;;;10.75;5.65;;;7.00;99.90;;;;;;5067581;28;20019;-61
2023/10/18 06:30:42;;;;;;;11.50;5.97;;;7.00;99.90;;;;;;5066503;28;20027;-57
2023/10/18 06:33:12;;;;;;;11.75;5.85;;;7.10;99.90;;;;;;5065832;28;20025;-60
2023/10/18 06:35:53;;;;;;;12.55;5.97;;;7.10;99.90;;;;;;5066190;28;20025;-57
2023/10/18 06:38:23;;;;;;;11.80;5.93;;;7.10;99.90;;;;;;5058973;28;20573;-59
2023/10/18 06:43:25;;;;;;;11.30;6.13;;;7.10;99.90;;;;;;5062132;28;20419;-59
2023/10/18 06:45:53;;;;;;;10.57;5.70;;;7.10;99.90;;;;;;5064324;28;20054;-59
2023/10/18 06:48:19;;;;;;;11.55;5.65;;;7.20;99.90;;;;;;5063799;28;20026;-61
2023/10/18 06:50:48;;;;;;;10.02;5.90;;;7.20;99.90;;;;;;5073722;28;20013;-60
2023/10/18 06:53:15;;;;;;;11.52;6.13;;;7.30;99.90;;;;;;5065437;28;20022;-61
2023/10/18 06:58:41;;;;;;;11.32;6.60;;;7.40;99.90;;;;;;5068072;28;20028;-62
2023/10/18 07:01:13;;;;;;;11.52;5.35;;;7.40;99.90;;;;;;5066785;28;20062;-61
2023/10/18 07:03:42;;;;;;;15.75;6.32;;;7.50;99.90;;;;;;5068240;28;20036;-62
2023/10/18 07:06:16;;;;;;;14.73;6.18;;;7.50;99.90;;;;;;5068011;28;20455;-61
2023/10/18 07:08:44;;;;;;;10.23;5.80;;;7.60;99.90;;;;;;5072446;28;20039;-62
2023/10/18 07:11:16;;;;;;;9.02;5.32;;;7.60;99.90;;;;;;5062989;28;20060;-62
2023/10/18 07:13:53;;;;;;;15.88;6.07;;;7.70;99.90;;;;;;5067612;28;20053;-62
2023/10/18 07:16:41;;;;;;;13.07;6.25;;;7.70;99.90;;;;;;5064965;28;20037;-62
2023/10/18 07:19:24;;;;;;;11.05;5.90;;;7.80;99.90;;;;;;5071771;28;20044;-60
2023/10/18 07:21:51;;;;;;;10.50;6.25;;;7.80;99.90;;;;;;5070448;28;20029;-61
2023/10/18 07:24:20;;;;;;;12.90;6.30;;;7.90;99.90;;;;;;5068246;28;20043;-60
2023/10/18 07:26:47;;;;;;;10.55;6.25;;;7.90;99.90;;;;;;5066914;28;20524;-60
2023/10/18 07:29:14;;;;;;;12.80;6.65;;;8.00;99.90;;;;;;5067750;28;20024;-60
2023/10/18 07:31:44;;;;;;;9.65;6.43;;;8.00;99.90;;;;;;5062950;28;20069;-62
2023/10/18 07:34:17;;;;;;;11.45;6.90;;;8.00;99.90;;;;;;5060152;28;20075;-60
2023/10/18 07:36:47;;;;;;;14.18;7.30;;;8.10;99.90;;;;;;5071161;28;20032;-60
2023/10/18 07:39:16;;;;;;;14.00;6.10;;;8.20;99.90;;;;;;5061158;28;20506;-59
2023/10/18 07:41:42;;;;;;;15.00;7.45;;;8.20;99.90;;;;;;5064684;28;20036;-61
2023/10/18 07:44:08;;;;;;;14.00;7.32;;;8.20;99.90;;;;;;5065701;28;20025;-62
2023/10/18 07:46:39;;;;;;;11.80;6.88;;;8.30;99.90;;;;;;5066799;28;20081;-60
2023/10/18 07:49:13;;;;;;;14.13;7.45;;;8.30;99.90;;;;;;5061814;28;20404;-62
2023/10/18 07:51:48;;;;;;;12.07;6.50;;;8.40;99.90;;;;;;5065794;28;20033;-62
2023/10/18 07:54:15;;;;;;;16.38;7.05;;;8.50;99.90;;;;;;5062332;28;20028;-62
2023/10/18 07:56:48;;;;;;;17.98;7.35;;;8.50;99.90;;;;;;5068916;28;20040;-60
2023/10/18 07:59:27;;;;;;;15.13;7.43;;;8.50;99.90;;;;;;5061868;28;20028;-61
2023/10/18 08:04:42;;;;;;;10.77;6.70;;;8.60;99.90;;;;;;5063074;28;20032;-61
2023/10/18 08:07:15;;;;;;;11.98;6.55;;;8.70;99.90;;;;;;5067461;28;20134;-61
2023/10/18 08:09:41;;;;;;;11.57;6.93;;;8.70;99.90;;;;;;5064247;28;20065;-58
2023/10/18 08:12:08;;;;;;;18.92;8.35;;;8.80;99.90;;;;;;5061787;28;20032;-59
2023/10/18 08:14:35;;;;;;;11.95;7.13;;;8.90;99.90;;;;;;5065477;28;20023;-57
2023/10/18 08:17:22;;;;;;;21.48;8.30;;;9.00;99.90;;;;;;5060126;28;20021;-61
2023/10/18 08:20:55;;;;;;;14.80;7.53;;;9.10;99.90;;;;;;5068894;28;20033;-61
2023/10/18 08:22:39;;;;;;;20.35;8.35;;;9.20;99.90;;;;;;5059746;28;20087;-60
2023/10/18 08:25:06;;;;;;;17.88;8.65;;;9.30;99.90;;;;;;5069955;28;20496;-60
2023/10/18 08:27:32;;;;;;;14.88;8.15;;;9.30;99.90;;;;;;5063044;28;20150;-58
2023/10/18 08:30:06;;;;;;;17.77;8.57;;;9.50;99.90;;;;;;5069318;28;20107;-58
2023/10/18 08:32:32;;;;;;;;;;;9.60;99.90;;;;;;5063895;28;20109;-59
2023/10/18 08:35:07;;;;;;;14.68;8.85;;;9.70;99.90;;;;;;5069169;28;19904;-59
2023/10/18 08:37:33;;;;;;;16.23;8.63;;;9.70;99.90;;;;;;5058647;28;20395;-59
2023/10/18 08:39:59;;;;;;;15.63;8.25;;;9.90;99.90;;;;;;5065244;28;20020;-62
2023/10/18 08:42:30;;;;;;;20.67;10.60;;;10.00;99.90;;;;;;5062157;28;20431;-61
2023/10/18 08:44:55;;;;;;;16.88;7.95;;;10.10;99.90;;;;;;5066050;28;20025;-58
2023/10/18 08:47:26;;;;;;;17.90;8.82;;;10.20;99.90;;;;;;5055286;28;20025;-62
2023/10/18 08:49:55;;;;;;;18.23;8.93;;;10.20;99.90;;;;;;5055396;28;20025;-56
2023/10/18 08:52:23;;;;;;;16.75;8.25;;;10.30;99.90;;;;;;5064026;28;20025;-61
2023/10/18 08:54:49;;;;;;;16.08;9.15;;;10.20;99.90;;;;;;5061967;28;20036;-62
2023/10/18 08:57:24;;;;;;;20.52;9.60;;;10.30;99.90;;;;;;5057800;28;20108;-61
2023/10/18 08:59:51;;;;;;;15.77;8.23;;;10.40;99.90;;;;;;5061039;28;20033;-62
2023/10/18 09:02:18;;;;;;;17.17;9.15;;;10.40;99.90;;;;;;5064938;28;20029;-61
2023/10/18 09:04:59;;;;;;;12.20;8.20;;;10.60;99.90;;;;;;5059944;28;20040;-62
2023/10/18 09:07:44;;;;;;;16.65;9.07;;;10.70;99.90;;;;;;5061215;28;20082;-61
2023/10/18 09:15:54;;;;;;;17.67;8.70;;;11.10;99.90;;;;;;5055748;28;20338;-57
2023/10/18 09:18:21;;;;;;;14.25;8.15;;;11.10;99.90;;;;;;5056639;28;20017;-59
2023/10/18 09:20:47;;;;;;;18.33;7.90;;;11.20;99.90;;;;;;5059744;28;20040;-61
2023/10/18 09:23:20;;;;;;;19.23;8.80;;;11.20;99.90;;;;;;5060735;28;20143;-59
2023/10/18 09:25:50;;;;;;;18.27;8.43;;;11.20;99.90;;;;;;5065288;28;20017;-60
2023/10/18 09:28:32;;;;;;;11.98;7.75;;;11.30;99.90;;;;;;5059777;28;20013;-61
2023/10/18 09:31:03;;;;;;;15.27;8.70;;;11.30;99.90;;;;;;5066676;28;20029;-61
2023/10/18 09:33:32;;;;;;;15.82;8.93;;;11.30;99.90;;;;;;5055767;28;20544;-60
2023/10/18 09:36:02;;;;;;;16.45;7.78;;;11.40;99.90;;;;;;5062731;28;20063;-61
2023/10/18 09:38:41;;;;;;;13.60;7.70;;;11.50;99.90;;;;;;5061166;28;20040;-60
2023/10/18 09:41:07;;;;;;;20.25;7.80;;;11.70;99.90;;;;;;5063605;28;20032;-59
2023/10/18 09:43:33;;;;;;;11.82;7.63;;;12.00;99.90;;;;;;5058051;28;20517;-59
2023/10/18 09:45:59;;;;;;;12.93;7.70;;;12.10;99.90;;;;;;5062027;28;20033;-60
2023/10/18 09:48:32;;;;;;;13.35;7.03;;;12.30;99.90;;;;;;5063712;28;20009;-61
2023/10/18 09:51:06;;;;;;;20.52;8.23;;;12.30;99.90;;;;;;5062203;28;20025;-62
2023/10/18 09:53:43;;;;;;;16.23;8.55;;;12.50;99.90;;;;;;5058181;28;20040;-60
2023/10/18 09:56:13;;;;;;;12.73;7.75;;;12.60;99.90;;;;;;5061666;28;20021;-59
2023/10/18 09:58:46;;;;;;;12.40;6.95;;;12.50;99.90;;;;;;5061870;28;20048;-61
2023/10/18 10:01:13;;;;;;;12.85;7.07;;;12.60;99.90;;;;;;5054970;28;20443;-61
2023/10/18 10:03:52;;;;;;;15.52;7.32;;;12.60;99.90;;;;;;5062639;28;20491;-61
2023/10/18 10:06:21;;;;;;;13.40;7.07;;;12.60;99.90;;;;;;5056213;28;20078;-62
2023/10/18 10:08:50;;;;;;;11.98;7.10;;;12.70;99.90;;;;;;5063763;28;20487;-58
2023/10/18 10:11:19;;;;;;;12.52;7.13;;;12.70;99.90;;;;;;5058115;28;20044;-61
2023/10/18 10:13:49;;;;;;;11.52;6.50;;;12.70;99.90;;;;;;5061260;28;20021;-57
2023/10/18 10:16:19;;;;;;;13.32;6.80;;;12.80;99.90;;;;;;5053559;28;20025;-59
2023/10/18 10:18:47;;;;;;;12.13;6.68;;;12.80;99.90;;;;;;5059067;28;20025;-59
2023/10/18 10:21:21;;;;;;;13.50;6.45;;;12.80;99.90;;;;;;5056284;28;20016;-61
2023/10/18 10:23:51;;;;;;;10.27;5.60;;;12.90;99.90;;;;;;5062685;28;20032;-61
2023/10/18 10:26:22;;;;;;;10.65;6.03;;;12.90;99.90;;;;;;5064445;28;21476;-60
2023/10/18 10:31:55;;;;;;;10.50;5.28;;;13.10;99.90;;;;;;5062934;28;20032;-60
2023/10/18 10:34:32;;;;;;;9.30;5.53;;;13.30;99.90;;;;;;5062461;28;20021;-62
2023/10/18 10:37:12;;;;;;;9.00;5.97;;;13.50;99.90;;;;;;5075578;28;20025;-60
2023/10/18 10:40:14;;;;;;;14.57;5.75;;;13.50;99.90;;;;;;5062866;28;20107;-61
2023/10/18 10:42:46;;;;;;;15.02;5.90;;;13.60;99.90;;;;;;5073173;28;20613;-62
2023/10/18 10:45:53;;;;;;;;;;;13.80;99.90;;;;;;5069129;28;20371;-59
2023/10/18 10:48:37;;;;;;;14.55;5.25;;;13.80;99.90;;;;;;5062011;28;19911;-60
2023/10/18 10:51:11;;;;;;;10.13;5.05;;;14.00;99.90;;;;;;5070606;28;20651;-61
2023/10/18 10:53:49;;;;;;;7.20;4.78;;;14.20;99.90;;;;;;5062526;28;20035;-61
2023/10/18 10:56:19;;;;;;;8.68;5.32;;;14.40;99.90;;;;;;5068322;28;20457;-60
2023/10/18 10:58:55;;;;;;;7.38;4.28;;;14.30;99.90;;;;;;5057961;28;20025;-62
2023/10/18 11:01:44;;;;;;;10.27;5.13;;;14.50;99.90;;;;;;5061886;28;20484;-57
2023/10/18 11:04:24;;;;;;;9.65;4.28;;;14.70;99.90;;;;;;5064936;28;20036;-59
2023/10/18 11:06:56;;;;;;;11.27;4.43;;;14.60;99.90;;;;;;5063885;28;20021;-59
2023/10/18 11:09:33;;;;;;;9.93;4.65;;;14.70;99.90;;;;;;5065348;28;20490;-62
2023/10/18 11:12:13;;;;;;;9.52;4.47;;;14.80;99.90;;;;;;5067790;28;20502;-58
2023/10/18 11:14:42;;;;;;;10.15;4.53;;;14.90;99.90;;;;;;5063848;28;20125;-59
2023/10/18 11:19:43;;;;;;;12.30;5.07;;;14.90;99.90;;;;;;5064340;28;20120;-61
2023/10/18 11:22:19;;;;;;;14.82;5.45;;;14.90;99.90;;;;;;5068667;28;20128;-60
2023/10/18 11:24:52;;;;;;;9.40;4.60;;;14.90;99.90;;;;;;5077207;28;20493;-61
2023/10/18 11:27:22;;;;;;;10.50;4.65;;;15.10;99.90;;;;;;5061469;28;20024;-60
2023/10/18 11:29:52;;;;;;;13.82;4.50;;;15.00;99.90;;;;;;5063699;28;20024;-61
2023/10/18 11:32:27;;;;;;;9.57;4.75;;;15.30;99.90;;;;;;5067305;28;20028;-62
2023/10/18 11:35:01;;;;;;;8.30;3.67;;;15.50;99.90;;;;;;5061567;28;20024;-60
2023/10/18 11:37:34;;;;;;;7.50;3.80;;;15.80;99.90;;;;;;5070622;28;20027;-59
2023/10/18 11:40:14;;;;;;;16.42;4.78;;;15.90;99.90;;;;;;5070036;28;20024;-60
2023/10/18 11:42:55;;;;;;;9.70;4.65;;;16.00;99.90;;;;;;5078756;28;20024;-59
2023/10/18 11:45:22;;;;;;;9.98;4.15;;;15.80;99.90;;;;;;5058453;28;20120;-62
2023/10/18 11:47:50;;;;;;;6.90;3.60;;;15.70;99.90;;;;;;5065923;28;20064;-59
2023/10/18 11:50:17;;;;;;;7.15;3.83;;;15.80;99.90;;;;;;5062190;28;20278;-62
2023/10/18 11:52:43;;;;;;;7.32;3.75;;;15.90;99.90;;;;;;5074331;28;20029;-57
2023/10/18 11:55:09;;;;;;;8.88;3.65;;;15.70;99.90;;;;;;5067249;28;20534;-58
2023/10/18 11:57:40;;;;;;;9.57;3.75;;;15.90;99.90;;;;;;5075167;28;20027;-60
2023/10/18 12:02:51;;;;;;;;;;;16.60;99.90;;;;;;5069181;28;20043;-61
2023/10/18 12:05:23;;;;;;;7.60;3.22;;;17.00;99.90;;;;;;5062594;28;19911;-61
2023/10/18 12:07:53;;;;;;;7.88;3.30;;;17.20;99.90;;;;;;5070579;28;20021;-62
2023/10/18 12:10:34;;;;;;;5.07;3.10;;;17.30;99.90;;;;;;5071135;28;20016;-62
2023/10/18 12:13:05;;;;;;;8.52;3.72;;;17.30;99.90;;;;;;5066307;28;20025;-62
2023/10/18 12:15:31;;;;;;;4.85;3.55;;;17.50;99.90;;;;;;5069872;28;20105;-61
2023/10/18 12:17:57;;;;;;;5.85;3.42;;;17.40;99.90;;;;;;5068135;28;20060;-61
2023/10/18 12:20:34;;;;;;;6.32;2.83;;;17.30;99.90;;;;;;5073515;28;20114;-61
2023/10/18 12:23:02;;;;;;;5.82;3.00;;;17.50;99.90;;;;;;5057709;28;20025;-59
2023/10/18 12:25:28;;;;;;;5.55;3.03;;;17.60;99.90;;;;;;5071352;28;20076;-58
2023/10/18 12:27:55;;;;;;;5.07;2.92;;;17.60;99.90;;;;;;5059039;28;20104;-60
2023/10/18 12:30:35;;;;;;;7.72;3.10;;;17.50;99.90;;;;;;5059914;28;20027;-61
2023/10/18 12:33:14;;;;;;;7.18;2.70;;;17.50;99.90;;;;;;5060035;28;20404;-57
2023/10/18 12:35:39;;;;;;;9.68;3.47;;;17.40;99.90;;;;;;5062701;28;20033;-61
2023/10/18 12:38:14;;;;;;;5.60;3.30;;;17.40;99.90;;;;;;5062503;28;20611;-60
2023/10/18 12:40:51;;;;;;;8.48;2.90;;;17.60;99.90;;;;;;5064532;28;20032;-62
2023/10/18 12:43:19;;;;;;;5.05;3.00;;;17.40;99.90;;;;;;5073838;28;20225;-59
2023/10/18 12:45:51;;;;;;;8.43;2.90;;;17.20;99.90;;;;;;5063628;28;20475;-60
2023/10/18 12:48:23;;;;;;;5.53;3.10;;;17.00;99.90;;;;;;5058441;28;20490;-60
2023/10/18 12:50:51;;;;;;;5.32;2.80;;;16.80;99.90;;;;;;5063830;28;21297;-59
2023/10/18 12:53:36;;;;;;;4.93;2.70;;;16.70;99.90;;;;;;5071653;28;20136;-62
2023/10/18 12:58:54;;;;;;;4.97;2.75;;;16.80;99.90;;;;;;5062356;28;20108;-60
2023/10/18 13:01:42;;;;;;;;;;;16.80;99.90;;;;;;5059158;28;20041;-61
2023/10/18 13:04:17;;;;;;;7.72;2.70;;;16.70;99.90;;;;;;5070823;28;19915;-61
2023/10/18 13:06:44;;;;;;;7.75;2.70;;;16.50;99.90;;;;;;5075405;28;20016;-61
2023/10/18 13:11:44;;;;;;;8.68;3.08;;;16.50;99.90;;;;;;5067765;28;20081;-62
2023/10/18 13:14:14;;;;;;;4.53;2.85;;;16.50;99.90;;;;;;5070672;28;20025;-61
2023/10/18 13:16:41;;;;;;;5.90;3.08;;;16.80;99.90;;;;;;5078419;28;20028;-62
2023/10/18 13:19:07;;;;;;;9.35;3.60;;;16.90;99.90;;;;;;5061230;28;20086;-61
2023/10/18 13:21:33;;;;;;;7.20;2.80;;;17.10;99.90;;;;;;5067995;28;20439;-60
2023/10/18 13:23:59;;;;;;;6.22;3.15;;;17.00;99.90;;;;;;5062020;28;20036;-59
2023/10/18 13:26:33;;;;;;;8.40;2.70;;;16.70;99.90;;;;;;5062384;28;20089;-59
2023/10/18 13:29:03;;;;;;;4.68;2.65;;;16.70;99.90;;;;;;5055880;28;20056;-59
2023/10/18 13:31:32;;;;;;;6.15;2.58;;;16.80;99.90;;;;;;5062951;28;20040;-62
2023/10/18 13:34:06;;;;;;;8.00;3.35;;;16.50;99.90;;;;;;5062947;28;20036;-59
2023/10/18 13:36:36;;;;;;;5.88;2.83;;;16.30;99.90;;;;;;5065001;28;20085;-62
2023/10/18 13:39:11;;;;;;;6.13;2.88;;;16.20;99.90;;;;;;5062247;28;20025;-61
2023/10/18 13:41:37;;;;;;;5.22;2.90;;;16.30;99.90;;;;;;5073640;28;20493;-60
2023/10/18 13:44:04;;;;;;;5.25;2.97;;;16.20;99.90;;;;;;5060607;28;20051;-60
2023/10/18 13:46:30;;;;;;;7.22;2.72;;;16.20;99.90;;;;;;5069568;28;20023;-62
2023/10/18 13:48:56;;;;;;;5.95;2.97;;;16.00;99.90;;;;;;5063335;28;20037;-62
2023/10/18 13:51:21;;;;;;;5.70;2.88;;;16.00;99.90;;;;;;5071071;28;20354;-61
2023/10/18 13:53:47;;;;;;;8.75;2.70;;;15.90;99.90;;;;;;5067584;28;20039;-58
2023/10/18 13:56:15;;;;;;;4.88;2.63;;;15.90;99.90;;;;;;5070172;28;20029;-62